EDXW/GWT METAR and TAF weather

Enter ICAO airport designator
Station Type Date Time Source
EDXW METAR 2021/05/10 20:50 UTC NOAA

EDXW 102050Z AUTO 15006KT 9999 // NCD 10/09 Q1010


Station Type Date Time Source
EDXW Decoded METAR 2021/05/10 20:50 UTC NOAA

Westerland / Sylt, Germany (EDXW) 54-55N 008-21E 20M
May 10, 2021 - 04:50 PM EDT / 2021.05.10 2050 UTC
Wind: from the SSE (150 degrees) at 7 MPH (6 KT):0
Visibility: greater than 7 mile(s):0
Temperature: 50 F (10 C)
Dew Point: 48 F (9 C)
Relative Humidity: 93%
Pressure (altimeter): 29.83 in. Hg (1010 hPa)
ob: EDXW 102050Z AUTO 15006KT 9999 // NCD 10/09 Q1010
cycle: 21

Station Type Date Time Source
EDXW TAF 2009/07/07 14:00 UTC NOAA

TAF EDXW 071400Z 0715/0719 22015G25KT 9999 SCT020

Example: see airport list